Sarah Ann — WDF3387 — position and weather

sailwx.info

Track history (hours):
 
Tides and Currents Weather Stations Pressure Air Temp Water Temp Dewpoint Dewpoint Depression Visibility Wind Speed Wind Dir Waves Ship Positions

Sarah Ann

Owner: Donjon Marine Co., Inc., Hillside, NJ. More information available from US FCC via Universal Licensing System and Coast Guard Vessel Documentation Center.

Last reported at 2018-Jan-18 04:00 UTC. Time now 2018-Jan-18 04:17 UTC.
Position N 40°41' W 074°04'.

Length 2 m; draft 3 m.

Type: Tug. MMSI: 366902120.

Date/timePositionNaut miles runAvg speedWind from/ knotsBaromVisibWave heightAir tempDewpointWater temp
2018-Jan-18 04:00N 40°41' W 074°04'3 5.3
2018-Jan-18 03:30N 40°42' W 074°01'3 5.3
2018-Jan-18 03:00N 40°43' W 073°58'1 2.6
2018-Jan-18 02:30N 40°44' W 073°57'0 0.0
2018-Jan-18 01:59N 40°44' W 073°57'1 1.3
2018-Jan-18 01:30N 40°44' W 073°58'4 8.0
2018-Jan-18 01:00N 40°41' W 074°01'3 2.6
2018-Jan-18 00:00N 40°40' W 074°04'0 8.0
2018-Jan-17 23:57N 40°40' W 074°04'  
2018-Jan-12 14:59N 40°41' W 074°08'0 0.0
2018-Jan-12 14:30N 40°41' W 074°08'2 4.2
2018-Jan-12 13:59N 40°39' W 074°09'3 5.4
2018-Jan-12 13:30N 40°39' W 074°05'2 4.3
2018-Jan-12 13:00N 40°41' W 074°05'0 0.1
2018-Jan-12 12:30N 40°41' W 074°05'0 0.0
2018-Jan-12 12:00N 40°41' W 074°05'0 0.0
2018-Jan-12 11:30N 40°41' W 074°05'0 0.0
2018-Jan-12 11:00N 40°41' W 074°05'0 0.0
2018-Jan-12 10:30N 40°41' W 074°05'0 0.0
2018-Jan-12 10:00N 40°41' W 074°05'0 0.0
2018-Jan-12 09:30N 40°41' W 074°05'0 0.0
2018-Jan-12 09:00N 40°41' W 074°05'0 0.0
2018-Jan-12 08:30N 40°41' W 074°05'0 0.0
2018-Jan-12 08:00N 40°41' W 074°05'0 0.0
2018-Jan-12 07:30N 40°41' W 074°05'0 0.0
2018-Jan-12 07:00N 40°41' W 074°05'0 0.0
2018-Jan-12 06:30N 40°41' W 074°05'0 0.0
2018-Jan-12 06:00N 40°41' W 074°05'0 0.8
2018-Jan-12 05:30N 40°41' W 074°04'2 4.4
2018-Jan-12 05:00N 40°42' W 074°01'3 6.5
2018-Jan-12 04:30N 40°44' W 073°58'1 2.3
2018-Jan-12 04:00N 40°44' W 073°57'0 0.0
2018-Jan-12 03:30N 40°44' W 073°57'1 1.8
2018-Jan-12 02:59N 40°44' W 073°58'1 1.6
2018-Jan-12 02:30N 40°43' W 073°58'1 2.9
2018-Jan-12 02:00N 40°42' W 073°60'3 5.4
2018-Jan-12 01:30N 40°40' W 074°02'2 3.6
2018-Jan-12 00:59N 40°41' W 074°05'0 0.0
2018-Jan-12 00:30N 40°41' W 074°05'1 1.6
2018-Jan-12 00:00N 40°41' W 074°04'3 0.2
2018-Jan-11 09:17N 40°41' W 074°08'3 3.0
2018-Jan-11 08:23N 40°39' W 074°06'2 5.4
2018-Jan-11 08:00N 40°40' W 074°04'3 5.2
2018-Jan-11 07:30N 40°42' W 074°02'2 4.8
2018-Jan-11 07:00N 40°44' W 074°01'2 4.1
2018-Jan-11 06:29N 40°46' W 074°00'0 0.5
2018-Jan-11 06:00N 40°46' W 074°00'0 0.0
2018-Jan-10 20:09N 40°46' W 074°00'0 0.0
2018-Jan-10 19:58N 40°46' W 074°00'0 0.0
2018-Jan-10 19:21N 40°46' W 074°00'0 0.1
2018-Jan-10 18:44N 40°46' W 074°00'0 0.1
2018-Jan-10 18:28N 40°46' W 074°00'0 0.1
2018-Jan-10 17:55N 40°46' W 074°00'0 0.1
2018-Jan-10 17:30N 40°46' W 074°00'0 0.0
2018-Jan-10 17:00N 40°46' W 074°00'1 1.1
2018-Jan-10 16:30N 40°46' W 074°01'1 1.8
2018-Jan-10 16:00N 40°45' W 074°01'2 4.3
2018-Jan-10 15:30N 40°43' W 074°02'2 4.1
2018-Jan-10 15:00N 40°41' W 074°03'2 4.4
2018-Jan-10 14:27N 40°39' W 074°05'3 5.5
2018-Jan-10 13:59N 40°39' W 074°08'3 1.0
2018-Jan-10 11:16N 40°41' W 074°08'3 7.4
2018-Jan-10 10:55N 40°39' W 074°09'3 7.4
2018-Jan-10 10:30N 40°39' W 074°05'2 3.8
2018-Jan-10 10:00N 40°41' W 074°04'3 5.4
2018-Jan-10 09:30N 40°42' W 074°01'3 6.2
2018-Jan-10 08:58N 40°44' W 073°58'0 0.2
2018-Jan-10 07:11N 40°44' W 073°58'1 5.7
2018-Jan-10 07:00N 40°43' W 073°58'4 7.6
2018-Jan-10 06:30N 40°41' W 074°02'2 3.6
2018-Jan-10 05:54N 40°41' W 074°05'4 0.2
2018-Jan-09 13:24N 40°39' W 074°08'3 7.5
2018-Jan-09 13:00N 40°39' W 074°05'5 8.9
2018-Jan-09 12:24N 40°42' W 073°59'1 0.2
2018-Jan-09 06:43N 40°44' W 073°58'2 9.8
2018-Jan-09 06:28N 40°42' W 074°00'3 6.1
2018-Jan-09 05:56N 40°41' W 074°05'0 0.0
2018-Jan-09 05:29N 40°41' W 074°05'0 0.0
2018-Jan-09 04:57N 40°41' W 074°05'0 0.0
2018-Jan-09 04:29N 40°41' W 074°05'0 0.0
2018-Jan-09 03:54N 40°41' W 074°05'0 0.3
2018-Jan-09 03:29N 40°41' W 074°04'2 3.1
2018-Jan-09 02:56N 40°39' W 074°04'3 4.3
2018-Jan-09 02:08N 40°39' W 074°09'2 4.0
2018-Jan-09 01:42N 40°41' W 074°08'1 0.1
2018-Jan-08 17:04N 40°40' W 074°08'2 5.7
2018-Jan-08 16:48N 40°39' W 074°09'3 6.7
2018-Jan-08 16:26N 40°39' W 074°05'2 4.9
2018-Jan-08 16:00N 40°41' W 074°04'1 1.7
2018-Jan-08 15:29N 40°41' W 074°05'0 0.0
2018-Jan-08 14:48N 40°41' W 074°05'0 0.2
2018-Jan-08 14:29N 40°41' W 074°05'0 0.0
2018-Jan-08 13:56N 40°41' W 074°05'0 0.1
2018-Jan-08 13:29N 40°41' W 074°04'0 0.3
2018-Jan-08 12:58N 40°41' W 074°05'0 0.1
2018-Jan-08 12:27N 40°41' W 074°05'0 0.1
2018-Jan-08 12:00N 40°41' W 074°05'0 0.1
2018-Jan-08 11:25N 40°41' W 074°05'0 0.0
2018-Jan-08 11:00N 40°41' W 074°05'0 0.0
2018-Jan-08 10:30N 40°41' W 074°05'0 0.0
2018-Jan-08 10:00N 40°41' W 074°05'0 0.0
2018-Jan-08 09:22N 40°41' W 074°05'0 0.0
2018-Jan-08 09:00N 40°41' W 074°05'0 0.0
2018-Jan-08 08:30N 40°41' W 074°05'0 0.0
2018-Jan-08 08:00N 40°41' W 074°05'0 0.0
2018-Jan-08 07:30N 40°41' W 074°05'0 0.0
2018-Jan-08 07:00N 40°41' W 074°05'0 0.0
2018-Jan-08 06:28N 40°41' W 074°05'0 0.0
2018-Jan-08 05:59N 40°41' W 074°05'0 0.0
2018-Jan-08 05:30N 40°41' W 074°05'0 0.0
2018-Jan-08 04:58N 40°41' W 074°05'0 0.0
2018-Jan-08 04:29N 40°41' W 074°05'  
Track history (hours):
 
Tides and Currents Weather Stations Pressure Air Temp Water Temp Dewpoint Dewpoint Depression Visibility Wind Speed Wind Dir Waves Ship Positions

Sarah Ann

Owner: Donjon Marine Co., Inc., Hillside, NJ. More information available from US FCC via Universal Licensing System and Coast Guard Vessel Documentation Center.

Last reported at 2018-Jan-18 04:00 UTC. Time now 2018-Jan-18 04:17 UTC.
Position N 40°41' W 074°04'.

Length 2 m; draft 3 m.

Type: Tug. MMSI: 366902120.

Date/timePositionNaut miles runAvg speedWind from/ knotsBaromVisibWave heightAir tempDewpointWater temp
2018-Jan-18 04:00N 40°41' W 074°04'3 5.3
2018-Jan-18 03:30N 40°42' W 074°01'3 5.3
2018-Jan-18 03:00N 40°43' W 073°58'1 2.6
2018-Jan-18 02:30N 40°44' W 073°57'0 0.0
2018-Jan-18 01:59N 40°44' W 073°57'1 1.3
2018-Jan-18 01:30N 40°44' W 073°58'4 8.0
2018-Jan-18 01:00N 40°41' W 074°01'3 2.6
2018-Jan-18 00:00N 40°40' W 074°04'0 8.0
2018-Jan-17 23:57N 40°40' W 074°04'  
2018-Jan-12 14:59N 40°41' W 074°08'0 0.0
2018-Jan-12 14:30N 40°41' W 074°08'2 4.2
2018-Jan-12 13:59N 40°39' W 074°09'3 5.4
2018-Jan-12 13:30N 40°39' W 074°05'2 4.3
2018-Jan-12 13:00N 40°41' W 074°05'0 0.1
2018-Jan-12 12:30N 40°41' W 074°05'0 0.0
2018-Jan-12 12:00N 40°41' W 074°05'0 0.0
2018-Jan-12 11:30N 40°41' W 074°05'0 0.0
2018-Jan-12 11:00N 40°41' W 074°05'0 0.0
2018-Jan-12 10:30N 40°41' W 074°05'0 0.0
2018-Jan-12 10:00N 40°41' W 074°05'0 0.0
2018-Jan-12 09:30N 40°41' W 074°05'0 0.0
2018-Jan-12 09:00N 40°41' W 074°05'0 0.0
2018-Jan-12 08:30N 40°41' W 074°05'0 0.0
2018-Jan-12 08:00N 40°41' W 074°05'0 0.0
2018-Jan-12 07:30N 40°41' W 074°05'0 0.0
2018-Jan-12 07:00N 40°41' W 074°05'0 0.0
2018-Jan-12 06:30N 40°41' W 074°05'0 0.0
2018-Jan-12 06:00N 40°41' W 074°05'0 0.8
2018-Jan-12 05:30N 40°41' W 074°04'2 4.4
2018-Jan-12 05:00N 40°42' W 074°01'3 6.5
2018-Jan-12 04:30N 40°44' W 073°58'1 2.3
2018-Jan-12 04:00N 40°44' W 073°57'0 0.0
2018-Jan-12 03:30N 40°44' W 073°57'1 1.8
2018-Jan-12 02:59N 40°44' W 073°58'1 1.6
2018-Jan-12 02:30N 40°43' W 073°58'1 2.9
2018-Jan-12 02:00N 40°42' W 073°60'3 5.4
2018-Jan-12 01:30N 40°40' W 074°02'2 3.6
2018-Jan-12 00:59N 40°41' W 074°05'0 0.0
2018-Jan-12 00:30N 40°41' W 074°05'1 1.6
2018-Jan-12 00:00N 40°41' W 074°04'3 0.2
2018-Jan-11 09:17N 40°41' W 074°08'3 3.0
2018-Jan-11 08:23N 40°39' W 074°06'2 5.4
2018-Jan-11 08:00N 40°40' W 074°04'3 5.2
2018-Jan-11 07:30N 40°42' W 074°02'2 4.8
2018-Jan-11 07:00N 40°44' W 074°01'2 4.1
2018-Jan-11 06:29N 40°46' W 074°00'0 0.5
2018-Jan-11 06:00N 40°46' W 074°00'0 0.0
2018-Jan-10 20:09N 40°46' W 074°00'0 0.0
2018-Jan-10 19:58N 40°46' W 074°00'0 0.0
2018-Jan-10 19:21N 40°46' W 074°00'0 0.1
2018-Jan-10 18:44N 40°46' W 074°00'0 0.1
2018-Jan-10 18:28N 40°46' W 074°00'0 0.1
2018-Jan-10 17:55N 40°46' W 074°00'0 0.1
2018-Jan-10 17:30N 40°46' W 074°00'0 0.0
2018-Jan-10 17:00N 40°46' W 074°00'1 1.1
2018-Jan-10 16:30N 40°46' W 074°01'1 1.8
2018-Jan-10 16:00N 40°45' W 074°01'2 4.3
2018-Jan-10 15:30N 40°43' W 074°02'2 4.1
2018-Jan-10 15:00N 40°41' W 074°03'2 4.4
2018-Jan-10 14:27N 40°39' W 074°05'3 5.5
2018-Jan-10 13:59N 40°39' W 074°08'3 1.0
2018-Jan-10 11:16N 40°41' W 074°08'3 7.4
2018-Jan-10 10:55N 40°39' W 074°09'3 7.4
2018-Jan-10 10:30N 40°39' W 074°05'2 3.8
2018-Jan-10 10:00N 40°41' W 074°04'3 5.4
2018-Jan-10 09:30N 40°42' W 074°01'3 6.2
2018-Jan-10 08:58N 40°44' W 073°58'0 0.2
2018-Jan-10 07:11N 40°44' W 073°58'1 5.7
2018-Jan-10 07:00N 40°43' W 073°58'4 7.6
2018-Jan-10 06:30N 40°41' W 074°02'2 3.6
2018-Jan-10 05:54N 40°41' W 074°05'4 0.2
2018-Jan-09 13:24N 40°39' W 074°08'3 7.5
2018-Jan-09 13:00N 40°39' W 074°05'5 8.9
2018-Jan-09 12:24N 40°42' W 073°59'1 0.2
2018-Jan-09 06:43N 40°44' W 073°58'2 9.8
2018-Jan-09 06:28N 40°42' W 074°00'3 6.1
2018-Jan-09 05:56N 40°41' W 074°05'0 0.0
2018-Jan-09 05:29N 40°41' W 074°05'0 0.0
2018-Jan-09 04:57N 40°41' W 074°05'0 0.0
2018-Jan-09 04:29N 40°41' W 074°05'0 0.0
2018-Jan-09 03:54N 40°41' W 074°05'0 0.3
2018-Jan-09 03:29N 40°41' W 074°04'2 3.1
2018-Jan-09 02:56N 40°39' W 074°04'3 4.3
2018-Jan-09 02:08N 40°39' W 074°09'2 4.0
2018-Jan-09 01:42N 40°41' W 074°08'1 0.1
2018-Jan-08 17:04N 40°40' W 074°08'2 5.7
2018-Jan-08 16:48N 40°39' W 074°09'3 6.7
2018-Jan-08 16:26N 40°39' W 074°05'2 4.9
2018-Jan-08 16:00N 40°41' W 074°04'1 1.7
2018-Jan-08 15:29N 40°41' W 074°05'0 0.0
2018-Jan-08 14:48N 40°41' W 074°05'0 0.2
2018-Jan-08 14:29N 40°41' W 074°05'0 0.0
2018-Jan-08 13:56N 40°41' W 074°05'0 0.1
2018-Jan-08 13:29N 40°41' W 074°04'0 0.3
2018-Jan-08 12:58N 40°41' W 074°05'0 0.1
2018-Jan-08 12:27N 40°41' W 074°05'0 0.1
2018-Jan-08 12:00N 40°41' W 074°05'0 0.1
2018-Jan-08 11:25N 40°41' W 074°05'0 0.0
2018-Jan-08 11:00N 40°41' W 074°05'0 0.0
2018-Jan-08 10:30N 40°41' W 074°05'0 0.0
2018-Jan-08 10:00N 40°41' W 074°05'0 0.0
2018-Jan-08 09:22N 40°41' W 074°05'0 0.0
2018-Jan-08 09:00N 40°41' W 074°05'0 0.0
2018-Jan-08 08:30N 40°41' W 074°05'0 0.0
2018-Jan-08 08:00N 40°41' W 074°05'0 0.0
2018-Jan-08 07:30N 40°41' W 074°05'0 0.0
2018-Jan-08 07:00N 40°41' W 074°05'0 0.0
2018-Jan-08 06:28N 40°41' W 074°05'0 0.0
2018-Jan-08 05:59N 40°41' W 074°05'0 0.0
2018-Jan-08 05:30N 40°41' W 074°05'0 0.0
2018-Jan-08 04:58N 40°41' W 074°05'0 0.0
2018-Jan-08 04:29N 40°41' W 074°05'  

Dump ship's entire track history